Time;durP1;ratioP1;P1;durP2;ratioP2;P2;SDS_P1;SDS_P2;PMS_P1;PMS_P2;Temp;Humidity;BMP_temperature;BMP_pressure;BME280_temperature;BME280_humidity;BME280_pressure;Samples;Min_cycle;Max_cycle;Signal;HPM_P1;HPM_P2
2023/04/29 00:01:25;;;;;;;61.70;34.40;;;8.90;99.90;;;;;;4970048;28;20812;-64
2023/04/29 00:03:51;;;;;;;55.95;33.50;;;8.90;99.90;;;;;;4952534;28;20441;-65
2023/04/29 00:06:17;;;;;;;52.00;29.95;;;8.70;99.90;;;;;;4968862;28;20045;-66
2023/04/29 00:08:43;;;;;;;50.17;31.60;;;8.80;99.90;;;;;;4971295;28;20508;-65
2023/04/29 00:11:09;;;;;;;53.83;33.15;;;8.70;99.90;;;;;;4968205;28;20129;-64
2023/04/29 00:13:35;;;;;;;63.42;36.13;;;8.80;99.90;;;;;;4953661;28;20081;-64
2023/04/29 00:16:01;;;;;;;54.28;35.83;;;8.80;99.90;;;;;;4971427;28;20065;-65
2023/04/29 00:18:27;;;;;;;57.55;34.72;;;8.80;99.90;;;;;;4967850;28;20104;-65
2023/04/29 00:20:53;;;;;;;58.45;35.47;;;8.80;99.90;;;;;;4971458;28;20046;-64
2023/04/29 00:23:18;;;;;;;54.67;34.47;;;8.80;99.90;;;;;;4963939;28;20054;-66
2023/04/29 00:25:44;;;;;;;51.10;31.15;;;8.80;99.90;;;;;;4951963;28;20087;-64
2023/04/29 00:28:11;;;;;;;54.72;32.53;;;8.80;99.90;;;;;;4955545;28;20206;-66
2023/04/29 00:30:36;;;;;;;51.33;29.00;;;8.90;99.90;;;;;;4952791;28;20139;-64
2023/04/29 00:33:02;;;;;;;53.70;30.02;;;8.90;99.90;;;;;;4971403;28;20141;-65
2023/04/29 00:35:28;;;;;;;53.15;29.15;;;8.80;99.90;;;;;;4968824;28;20268;-64
2023/04/29 00:37:53;;;;;;;50.75;28.02;;;8.70;99.90;;;;;;4953429;28;20034;-66
2023/04/29 00:40:19;;;;;;;53.78;28.05;;;8.70;99.90;;;;;;4967844;28;20041;-65
2023/04/29 00:42:45;;;;;;;53.53;28.00;;;8.70;99.90;;;;;;4951539;28;20251;-64
2023/04/29 00:45:11;;;;;;;51.00;29.08;;;8.80;99.90;;;;;;4966231;28;20054;-65
2023/04/29 00:47:37;;;;;;;45.92;27.50;;;8.80;99.90;;;;;;4970742;28;20489;-65
2023/04/29 00:50:08;;;;;;;45.88;27.33;;;8.80;99.90;;;;;;4962813;28;20042;-65
2023/04/29 00:52:34;;;;;;;48.63;28.67;;;8.70;99.90;;;;;;4954868;28;20595;-65
2023/04/29 00:55:01;;;;;;;44.83;27.48;;;8.80;99.90;;;;;;4967330;28;20040;-65
2023/04/29 00:57:28;;;;;;;52.72;28.48;;;8.80;99.90;;;;;;4966534;28;20414;-64
2023/04/29 00:59:56;;;;;;;44.75;29.30;;;8.70;99.90;;;;;;4956918;28;20045;-66
2023/04/29 01:02:22;;;;;;;54.00;31.90;;;8.70;99.90;;;;;;4987446;28;20295;-64
2023/04/29 01:04:48;;;;;;;57.10;32.40;;;8.70;99.90;;;;;;4972307;28;20041;-64
2023/04/29 01:07:17;;;;;;;50.38;30.92;;;8.80;99.90;;;;;;4958283;28;20064;-65
2023/04/29 01:09:55;;;;;;;58.38;31.67;;;8.70;99.90;;;;;;4966282;28;20055;-66
2023/04/29 01:12:27;;;;;;;53.90;29.83;;;8.70;99.90;;;;;;4949183;28;20047;-65
2023/04/29 01:15:31;;;;;;;52.95;29.55;;;8.70;99.90;;;;;;4967833;28;20048;-64
2023/04/29 01:17:57;;;;;;;45.28;28.25;;;8.70;99.90;;;;;;4963255;28;20489;-64
2023/04/29 01:20:24;;;;;;;48.50;27.52;;;8.70;99.90;;;;;;4973453;28;20093;-65
2023/04/29 01:22:50;;;;;;;45.97;24.73;;;8.70;99.90;;;;;;4989219;28;20049;-64
2023/04/29 01:25:16;;;;;;;38.55;23.27;;;8.70;99.90;;;;;;4989426;28;20152;-65
2023/04/29 01:28:00;;;;;;;49.17;23.10;;;8.80;99.90;;;;;;4951810;28;20702;-64
2023/04/29 01:30:32;;;;;;;41.97;22.45;;;8.60;99.90;;;;;;4974892;28;20044;-65
2023/04/29 01:33:16;;;;;;;36.67;23.00;;;8.80;99.90;;;;;;4968946;28;20481;-64
2023/04/29 01:35:50;;;;;;;;;;;8.60;99.90;;;;;;4965130;28;20041;-64
2023/04/29 01:38:19;;;;;;;40.88;23.60;;;8.80;99.90;;;;;;4954968;28;20439;-65
2023/04/29 01:40:58;;;;;;;42.10;24.48;;;8.60;99.90;;;;;;4967165;28;20042;-65
2023/04/29 01:43:28;;;;;;;40.50;24.05;;;8.60;99.90;;;;;;4968223;28;20060;-66
2023/04/29 01:45:56;;;;;;;41.08;23.92;;;8.80;99.90;;;;;;4989956;28;20038;-64
2023/04/29 01:48:23;;;;;;;43.65;23.45;;;8.80;99.90;;;;;;4965012;28;20081;-65
2023/04/29 01:50:49;;;;;;;42.92;22.88;;;8.60;99.90;;;;;;4967014;28;20054;-65
2023/04/29 01:53:14;;;;;;;41.72;22.40;;;8.60;99.90;;;;;;4966217;28;20117;-64
2023/04/29 01:55:40;;;;;;;40.40;22.33;;;8.50;99.90;;;;;;4961395;28;20113;-64
2023/04/29 01:58:06;;;;;;;40.28;24.33;;;8.60;99.90;;;;;;4962294;28;20109;-65
2023/04/29 02:00:31;;;;;;;37.38;22.42;;;8.50;99.90;;;;;;4965930;28;20229;-64
2023/04/29 02:02:57;;;;;;;39.50;25.02;;;8.50;99.90;;;;;;4963953;28;20043;-64
2023/04/29 02:05:23;;;;;;;42.78;25.58;;;8.60;99.90;;;;;;4964866;28;20548;-65
2023/04/29 02:07:49;;;;;;;46.92;24.60;;;8.40;99.90;;;;;;4968563;28;20624;-64
2023/04/29 02:10:15;;;;;;;41.22;24.48;;;8.60;99.90;;;;;;4948670;28;20045;-67
2023/04/29 02:12:40;;;;;;;41.92;24.20;;;8.70;99.90;;;;;;4967565;28;20069;-65
2023/04/29 02:15:07;;;;;;;39.67;24.52;;;8.50;99.90;;;;;;4965578;28;20746;-64
2023/04/29 02:17:33;;;;;;;40.58;24.67;;;8.50;99.90;;;;;;4967738;28;20089;-64
2023/04/29 02:19:59;;;;;;;43.13;24.33;;;8.50;99.90;;;;;;4951323;28;20579;-65
2023/04/29 02:22:24;;;;;;;36.13;24.00;;;8.50;99.90;;;;;;4961307;28;20173;-64
2023/04/29 02:24:50;;;;;;;38.40;23.67;;;8.50;99.90;;;;;;4963667;28;20077;-64
2023/04/29 02:27:16;;;;;;;40.10;24.50;;;8.50;99.90;;;;;;4947661;28;20070;-64
2023/04/29 02:29:42;;;;;;;46.35;25.35;;;8.50;99.90;;;;;;4976621;28;20207;-66
2023/04/29 02:32:08;;;;;;;39.55;24.40;;;8.60;99.90;;;;;;4947551;28;20041;-65
2023/04/29 02:34:33;;;;;;;43.05;25.23;;;8.40;99.90;;;;;;4961031;28;20393;-64
2023/04/29 02:36:59;;;;;;;41.17;24.63;;;8.60;99.90;;;;;;4965936;28;20084;-65
2023/04/29 02:39:25;;;;;;;38.45;23.80;;;8.60;99.90;;;;;;4944043;28;20049;-64
2023/04/29 02:41:55;;;;;;;40.13;23.88;;;8.50;99.90;;;;;;4957271;28;20046;-65
2023/04/29 02:44:20;;;;;;;39.20;24.85;;;8.70;99.90;;;;;;4957136;28;20049;-64
2023/04/29 02:46:46;;;;;;;41.08;26.00;;;8.70;99.90;;;;;;4948364;28;20466;-64
2023/04/29 02:49:13;;;;;;;39.08;25.48;;;8.70;99.90;;;;;;4955340;28;20090;-64
2023/04/29 02:51:38;;;;;;;42.88;23.85;;;8.60;99.90;;;;;;4960789;28;20433;-64
2023/04/29 02:54:04;;;;;;;39.22;24.85;;;8.60;99.90;;;;;;4976675;28;20039;-63
2023/04/29 02:56:30;;;;;;;34.53;24.15;;;8.60;99.90;;;;;;4957370;28;20062;-64
2023/04/29 02:58:55;;;;;;;33.70;21.50;;;8.70;99.90;;;;;;4947890;28;20429;-63
2023/04/29 03:01:23;;;;;;;34.65;22.25;;;8.80;99.90;;;;;;4960431;28;20062;-65
2023/04/29 03:03:48;;;;;;;34.13;20.80;;;8.70;99.90;;;;;;4949024;28;20332;-64
2023/04/29 03:06:14;;;;;;;39.22;23.23;;;8.70;99.90;;;;;;4960523;28;20046;-64
2023/04/29 03:08:40;;;;;;;37.05;22.95;;;8.90;99.90;;;;;;4960210;28;20047;-64
2023/04/29 03:11:06;;;;;;;38.95;22.25;;;8.90;99.90;;;;;;4924339;28;20504;-66
2023/04/29 03:13:32;;;;;;;34.67;22.30;;;8.70;99.90;;;;;;4952526;28;20515;-63
2023/04/29 03:15:59;;;;;;;35.63;22.65;;;8.60;99.90;;;;;;4963462;28;20042;-64
2023/04/29 03:18:25;;;;;;;35.97;24.73;;;8.90;99.90;;;;;;4981791;28;20046;-64
2023/04/29 03:20:50;;;;;;;40.63;25.27;;;8.80;99.90;;;;;;4967462;28;20464;-64
2023/04/29 03:23:16;;;;;;;45.25;27.67;;;8.70;99.90;;;;;;4952302;28;20495;-64
2023/04/29 03:25:42;;;;;;;42.40;26.65;;;8.60;99.90;;;;;;4951000;28;20469;-64
2023/04/29 03:28:07;;;;;;;41.60;27.60;;;8.80;99.90;;;;;;4968155;28;20495;-64
2023/04/29 03:30:33;;;;;;;42.08;26.98;;;8.80;99.90;;;;;;4949527;28;20050;-63
2023/04/29 03:33:00;;;;;;;44.83;26.13;;;8.80;99.90;;;;;;4965865;28;20050;-65
2023/04/29 03:35:25;;;;;;;39.58;24.85;;;8.80;99.90;;;;;;4966312;28;20049;-64
2023/04/29 03:37:52;;;;;;;39.17;25.67;;;8.70;99.90;;;;;;4953616;28;20400;-64
2023/04/29 03:40:18;;;;;;;38.75;23.85;;;8.70;99.90;;;;;;4945911;28;20062;-64
2023/04/29 03:42:43;;;;;;;39.10;24.42;;;8.70;99.90;;;;;;4965226;28;20037;-64
2023/04/29 03:45:12;;;;;;;39.75;22.42;;;8.60;99.90;;;;;;4960089;28;20049;-64
2023/04/29 03:47:37;;;;;;;42.10;23.25;;;8.70;99.90;;;;;;4946321;28;20401;-64
2023/04/29 03:50:03;;;;;;;39.67;21.88;;;8.70;99.90;;;;;;4967263;28;20050;-65
2023/04/29 03:52:29;;;;;;;41.17;21.65;;;8.60;99.90;;;;;;4949605;28;20701;-64
2023/04/29 03:54:55;;;;;;;30.33;20.92;;;8.80;99.90;;;;;;4966300;28;20055;-64
2023/04/29 03:57:21;;;;;;;34.00;21.75;;;8.60;99.90;;;;;;4948046;28;20045;-64
2023/04/29 03:59:49;;;;;;;32.92;21.45;;;8.60;99.90;;;;;;4967793;28;20034;-64
2023/04/29 04:02:15;;;;;;;32.83;21.13;;;8.80;99.90;;;;;;4965771;28;20046;-65
2023/04/29 04:04:41;;;;;;;37.42;22.40;;;8.80;99.90;;;;;;4965397;28;20128;-63
2023/04/29 04:07:07;;;;;;;33.58;20.30;;;8.60;99.90;;;;;;4965015;28;20104;-64
2023/04/29 04:09:34;;;;;;;32.45;20.05;;;8.80;99.90;;;;;;4930878;28;20046;-64
2023/04/29 04:12:00;;;;;;;31.52;19.38;;;8.60;99.90;;;;;;4944743;28;20134;-65
2023/04/29 04:14:26;;;;;;;35.50;21.42;;;8.70;99.90;;;;;;4937735;28;20116;-66
2023/04/29 04:16:52;;;;;;;32.45;20.75;;;8.80;99.90;;;;;;4943515;28;20045;-64
2023/04/29 04:19:17;;;;;;;35.67;21.17;;;8.80;99.90;;;;;;4921255;28;20432;-64
2023/04/29 04:21:43;;;;;;;31.02;20.67;;;8.80;99.90;;;;;;4941466;28;20655;-64
2023/04/29 04:24:09;;;;;;;35.70;21.42;;;8.80;99.90;;;;;;4954795;28;20381;-64
2023/04/29 04:26:34;;;;;;;32.95;19.73;;;8.90;99.90;;;;;;4959560;28;20515;-63
2023/04/29 04:29:00;;;;;;;32.75;21.15;;;8.70;99.90;;;;;;4957940;28;20194;-65
2023/04/29 04:31:26;;;;;;;38.67;23.73;;;8.80;99.90;;;;;;4939398;28;20050;-64
2023/04/29 04:33:52;;;;;;;38.72;24.65;;;8.70;99.90;;;;;;4929119;28;20046;-64
2023/04/29 04:36:17;;;;;;;35.72;21.88;;;8.70;99.90;;;;;;4927168;28;20121;-64
2023/04/29 04:38:43;;;;;;;32.83;19.90;;;8.70;99.90;;;;;;4958702;28;20053;-64
2023/04/29 04:41:09;;;;;;;34.47;21.10;;;8.90;99.90;;;;;;4957136;28;20042;-64
2023/04/29 04:43:34;;;;;;;36.10;20.27;;;8.80;99.90;;;;;;4939529;28;20136;-64
2023/04/29 04:46:08;;;;;;;39.88;21.05;;;8.80;99.90;;;;;;4939804;28;20030;-65
2023/04/29 04:48:33;;;;;;;33.97;19.25;;;8.80;99.90;;;;;;4938549;28;20046;-63
2023/04/29 04:51:15;;;;;;;28.00;16.25;;;8.80;99.90;;;;;;4940039;28;20038;-64
2023/04/29 04:53:40;;;;;;;24.30;14.70;;;8.70;99.90;;;;;;4936078;28;20522;-64
2023/04/29 04:56:07;;;;;;;23.40;14.65;;;8.80;99.90;;;;;;4941422;28;20049;-64
2023/04/29 04:58:32;;;;;;;24.90;13.38;;;8.80;99.90;;;;;;4955660;28;20043;-63
2023/04/29 05:00:58;;;;;;;22.95;13.25;;;8.70;99.90;;;;;;4958290;28;20069;-64
2023/04/29 05:03:24;;;;;;;21.85;12.50;;;8.80;23.20;;;;;;4942066;28;20053;-64
2023/04/29 05:05:54;;;;;;;18.38;12.30;;;8.80;1.00;;;;;;4954763;28;20485;-63
2023/04/29 05:08:20;;;;;;;19.75;11.95;;;8.80;8.40;;;;;;4936663;28;20057;-63
2023/04/29 05:10:46;;;;;;;20.42;12.90;;;8.90;1.00;;;;;;4932835;28;20038;-64
2023/04/29 05:13:11;;;;;;;20.45;13.35;;;8.90;1.00;;;;;;4953943;28;20053;-64
2023/04/29 05:15:37;;;;;;;20.17;12.32;;;8.90;1.00;;;;;;4940424;28;20038;-64
2023/04/29 05:18:03;;;;;;;22.10;12.18;;;8.80;1.00;;;;;;4942689;28;20041;-63
2023/04/29 05:20:28;;;;;;;19.50;11.68;;;8.80;1.00;;;;;;4942638;28;20058;-64
2023/04/29 05:22:54;;;;;;;19.30;12.05;;;8.90;99.90;;;;;;4941478;28;20041;-64
2023/04/29 05:25:20;;;;;;;25.48;12.52;;;8.90;99.90;;;;;;4940619;28;20144;-64
2023/04/29 05:27:45;;;;;;;21.98;13.15;;;8.90;99.90;;;;;;4955729;28;20061;-64
2023/04/29 05:30:11;;;;;;;19.85;12.13;;;9.00;99.90;;;;;;4958721;28;20196;-64
2023/04/29 05:32:37;;;;;;;23.75;11.93;;;8.90;99.90;;;;;;4942434;28;20038;-65
2023/04/29 05:35:03;;;;;;;17.65;11.95;;;9.00;99.90;;;;;;4938533;28;20133;-64
2023/04/29 05:37:30;;;;;;;21.55;12.13;;;9.10;99.90;;;;;;4933999;28;20077;-65
2023/04/29 05:39:56;;;;;;;21.40;13.80;;;9.10;99.90;;;;;;4954799;28;20038;-65
2023/04/29 05:42:22;;;;;;;24.40;14.50;;;9.20;99.90;;;;;;4951336;28;20053;-65
2023/04/29 05:44:49;;;;;;;13.93;10.45;;;9.20;99.90;;;;;;4937674;28;20042;-65
2023/04/29 05:47:15;;;;;;;19.30;10.73;;;9.20;99.90;;;;;;4919732;28;20080;-65
2023/04/29 05:49:40;;;;;;;20.08;11.68;;;9.10;99.90;;;;;;4956741;28;20128;-64
2023/04/29 05:52:06;;;;;;;21.23;11.00;;;9.20;99.90;;;;;;4956955;28;20129;-64
2023/04/29 05:54:32;;;;;;;17.38;10.85;;;9.20;99.90;;;;;;4957426;28;20042;-65
2023/04/29 05:57:01;;;;;;;17.17;9.45;;;9.20;99.90;;;;;;4941712;28;20392;-66
2023/04/29 05:59:29;;;;;;;17.38;10.02;;;9.20;99.90;;;;;;4937632;28;20721;-65
2023/04/29 06:01:55;;;;;;;14.95;9.40;;;9.20;99.90;;;;;;4970571;28;20069;-65
2023/04/29 06:04:21;;;;;;;17.67;8.88;;;9.30;99.90;;;;;;4944527;28;20562;-65
2023/04/29 06:06:47;;;;;;;13.13;8.20;;;9.30;99.90;;;;;;4961679;28;20550;-64
2023/04/29 06:09:14;;;;;;;17.35;8.98;;;9.40;99.90;;;;;;4980018;28;20049;-66
2023/04/29 06:11:40;;;;;;;16.23;8.43;;;9.40;99.90;;;;;;4961800;28;20065;-64
2023/04/29 06:14:06;;;;;;;12.25;8.73;;;9.40;99.90;;;;;;4961765;28;20050;-64
2023/04/29 06:16:32;;;;;;;19.02;8.57;;;9.40;99.90;;;;;;4965743;28;20071;-64
2023/04/29 06:18:59;;;;;;;14.80;8.73;;;9.50;98.90;;;;;;4971163;28;20049;-65
2023/04/29 06:21:26;;;;;;;16.63;8.40;;;9.40;95.80;;;;;;4953130;28;20042;-65
2023/04/29 06:23:52;;;;;;;10.88;7.22;;;9.40;93.60;;;;;;4960637;28;20038;-64
2023/04/29 06:26:19;;;;;;;13.52;8.07;;;9.40;46.00;;;;;;4956151;28;20607;-64
2023/04/29 06:28:48;;;;;;;11.77;7.38;;;9.50;92.60;;;;;;4957629;28;20129;-65
2023/04/29 06:31:14;;;;;;;10.80;7.13;;;9.60;49.00;;;;;;4925446;28;20034;-64
2023/04/29 06:33:40;;;;;;;11.70;7.57;;;9.80;1.00;;;;;;4956169;28;20038;-64
2023/04/29 06:36:06;;;;;;;15.90;7.53;;;10.20;49.60;;;;;;4955610;28;20057;-65
2023/04/29 06:38:32;;;;;;;11.77;7.18;;;10.40;1.00;;;;;;4943619;28;20062;-64
2023/04/29 06:40:59;;;;;;;10.95;7.22;;;10.30;99.90;;;;;;4958644;28;20251;-64
2023/04/29 06:43:29;;;;;;;11.57;7.10;;;10.30;1.00;;;;;;4947256;28;20072;-64
2023/04/29 06:45:55;;;;;;;15.93;7.07;;;10.40;1.00;;;;;;4950477;28;20046;-64
2023/04/29 06:48:21;;;;;;;14.93;8.20;;;10.70;99.90;;;;;;4967851;28;20046;-64
2023/04/29 06:50:54;;;;;;;13.43;6.70;;;11.10;1.00;;;;;;4947274;28;20045;-65
2023/04/29 06:53:21;;;;;;;8.25;6.65;;;11.50;99.90;;;;;;4961906;28;20046;-65
2023/04/29 06:55:47;;;;;;;11.80;6.60;;;11.60;99.90;;;;;;4967284;28;20136;-65
2023/04/29 06:58:14;;;;;;;11.55;6.30;;;11.90;99.90;;;;;;4983618;28;20129;-64
2023/04/29 07:00:42;;;;;;;12.60;6.15;;;12.00;99.90;;;;;;4983310;28;20064;-64
2023/04/29 07:03:09;;;;;;;10.35;6.25;;;12.30;99.90;;;;;;4984397;28;20547;-64
2023/04/29 07:05:36;;;;;;;12.38;6.22;;;12.20;99.90;;;;;;4984285;28;20060;-65
2023/04/29 07:08:02;;;;;;;9.20;6.15;;;12.50;99.90;;;;;;4967548;28;20508;-65
2023/04/29 07:10:28;;;;;;;9.95;6.22;;;12.50;99.90;;;;;;4995519;28;20089;-65
2023/04/29 07:12:54;;;;;;;10.27;6.63;;;12.70;99.90;;;;;;4965194;28;20464;-65
2023/04/29 07:15:20;;;;;;;9.13;5.95;;;12.80;99.90;;;;;;4964189;28;20042;-66
2023/04/29 07:17:45;;;;;;;11.20;5.95;;;13.00;99.90;;;;;;4963684;28;20038;-65
2023/04/29 07:20:11;;;;;;;9.95;5.47;;;13.00;99.90;;;;;;4962382;28;20121;-66
2023/04/29 07:22:37;;;;;;;10.48;5.22;;;13.20;99.90;;;;;;4947765;28;20046;-64
2023/04/29 07:25:03;;;;;;;9.90;5.20;;;13.30;99.90;;;;;;4963864;28;20057;-64
2023/04/29 07:27:29;;;;;;;11.15;4.80;;;13.30;99.90;;;;;;4946840;28;20267;-66
2023/04/29 07:29:54;;;;;;;7.20;4.18;;;13.40;99.90;;;;;;4945814;28;20505;-65
2023/04/29 07:32:20;;;;;;;11.23;4.97;;;13.50;99.90;;;;;;4962799;28;20902;-67
2023/04/29 07:34:46;;;;;;;8.73;4.00;;;13.70;99.90;;;;;;4962691;28;20049;-65
2023/04/29 07:37:12;;;;;;;8.00;4.30;;;13.70;99.90;;;;;;4962320;28;20096;-64
2023/04/29 07:39:38;;;;;;;9.57;5.20;;;13.70;99.90;;;;;;4962685;28;20041;-65
2023/04/29 07:42:04;;;;;;;7.70;4.57;;;13.70;99.90;;;;;;4946922;28;20415;-65
2023/04/29 07:44:29;;;;;;;10.45;4.90;;;13.80;99.90;;;;;;4963140;28;20109;-65
2023/04/29 07:46:55;;;;;;;9.00;4.90;;;13.60;99.90;;;;;;4962745;28;20112;-66
2023/04/29 07:49:22;;;;;;;9.20;5.05;;;13.80;99.90;;;;;;4962150;28;20050;-65
2023/04/29 07:51:48;;;;;;;8.88;4.97;;;13.80;99.90;;;;;;4931575;28;21070;-65
2023/04/29 07:54:15;;;;;;;10.82;5.18;;;13.80;99.90;;;;;;4981364;28;20045;-66
2023/04/29 07:56:44;;;;;;;10.30;5.43;;;13.70;99.90;;;;;;4981569;28;20624;-65
2023/04/29 07:59:10;;;;;;;7.88;4.35;;;13.80;99.90;;;;;;4946349;28;20069;-65
2023/04/29 08:01:35;;;;;;;9.20;4.70;;;13.80;99.90;;;;;;4965068;28;20702;-66
2023/04/29 08:04:01;;;;;;;9.68;4.45;;;13.90;99.90;;;;;;4981887;28;20062;-65
2023/04/29 08:06:27;;;;;;;8.32;4.43;;;13.80;99.90;;;;;;5000505;28;20120;-65
2023/04/29 08:08:55;;;;;;;12.35;4.32;;;14.10;99.90;;;;;;4999263;28;20089;-65
2023/04/29 08:11:23;;;;;;;8.80;4.50;;;14.20;99.90;;;;;;5001284;28;20053;-66
2023/04/29 08:13:49;;;;;;;9.52;5.05;;;14.30;99.90;;;;;;4982707;28;20076;-66
2023/04/29 08:16:16;;;;;;;8.73;4.95;;;14.40;99.90;;;;;;4967288;28;20041;-65
2023/04/29 08:18:41;;;;;;;9.27;5.32;;;14.60;99.90;;;;;;4974466;28;20183;-66
2023/04/29 08:21:08;;;;;;;7.82;4.60;;;14.80;99.90;;;;;;4966276;28;20130;-65
2023/04/29 08:23:34;;;;;;;7.68;4.55;;;14.80;99.90;;;;;;4982658;28;20050;-65
2023/04/29 08:26:02;;;;;;;10.65;5.30;;;15.00;99.90;;;;;;5000030;28;20085;-65
2023/04/29 08:28:28;;;;;;;8.73;4.25;;;14.90;99.90;;;;;;4956755;28;20062;-65
2023/04/29 08:30:54;;;;;;;7.10;3.33;;;14.80;1.00;;;;;;4948323;28;20072;-65
2023/04/29 08:33:21;;;;;;;10.00;3.20;;;14.70;29.70;;;;;;4963189;28;20496;-66
2023/04/29 08:35:47;;;;;;;8.10;2.90;;;15.20;99.90;;;;;;4963007;28;20279;-67
2023/04/29 08:38:12;;;;;;;8.50;2.97;;;15.10;55.10;;;;;;4968669;28;20188;-66
2023/04/29 08:40:45;;;;;;;7.10;2.78;;;15.30;39.80;;;;;;4966626;28;20125;-65
2023/04/29 08:43:13;;;;;;;7.75;2.67;;;15.50;3.80;;;;;;4980306;28;20085;-65
2023/04/29 08:45:40;;;;;;;6.25;2.13;;;15.60;1.00;;;;;;4980798;28;20046;-66
2023/04/29 08:48:06;;;;;;;8.70;2.20;;;15.60;1.00;;;;;;4978420;28;20058;-66
2023/04/29 08:50:40;;;;;;;6.03;2.17;;;15.70;2.60;;;;;;4979408;28;20159;-66
2023/04/29 08:53:07;;;;;;;7.22;2.20;;;15.40;99.90;;;;;;4979338;28;20067;-66
2023/04/29 08:55:41;;;;;;;9.98;2.22;;;15.60;1.00;;;;;;4997311;28;20041;-66
2023/04/29 08:58:07;;;;;;;7.32;1.50;;;15.60;1.00;;;;;;4976934;28;20386;-66
2023/04/29 09:00:34;;;;;;;8.70;1.88;;;15.80;99.90;;;;;;4978372;28;20068;-66
2023/04/29 09:03:10;;;;;;;6.82;1.55;;;15.90;1.00;;;;;;4980158;28;20071;-67
2023/04/29 09:05:37;;;;;;;8.75;1.70;;;15.80;99.90;;;;;;4979079;28;20049;-66
2023/04/29 09:08:04;;;;;;;6.47;1.45;;;16.20;99.90;;;;;;4955113;28;20046;-67
2023/04/29 09:10:30;;;;;;;5.97;1.75;;;16.40;99.90;;;;;;4969298;28;20149;-66
2023/04/29 09:13:00;;;;;;;8.57;2.13;;;16.30;99.90;;;;;;4979149;28;20436;-67
2023/04/29 09:15:26;;;;;;;5.53;1.77;;;16.20;99.90;;;;;;4997101;28;20053;-68
2023/04/29 09:17:52;;;;;;;7.25;1.58;;;16.40;99.90;;;;;;4974284;28;20042;-66
2023/04/29 09:20:21;;;;;;;6.68;1.75;;;16.30;99.90;;;;;;4961105;28;20042;-67
2023/04/29 09:23:00;;;;;;;6.25;1.80;;;16.50;99.90;;;;;;4961290;28;20046;-66
2023/04/29 09:25:27;;;;;;;7.20;2.00;;;16.30;99.90;;;;;;4979505;28;20046;-66
2023/04/29 09:27:54;;;;;;;5.03;1.63;;;16.30;99.90;;;;;;4945210;28;20145;-65
2023/04/29 09:30:21;;;;;;;6.15;1.75;;;16.40;99.90;;;;;;4976931;28;20051;-66
2023/04/29 09:33:08;;;;;;;5.68;1.92;;;16.30;99.90;;;;;;4976792;28;20044;-66
2023/04/29 09:35:35;;;;;;;4.68;1.80;;;16.50;99.90;;;;;;4977371;28;20533;-65
2023/04/29 09:38:14;;;;;;;8.60;2.50;;;16.30;99.90;;;;;;4974987;28;20385;-65
2023/04/29 09:40:42;;;;;;;4.93;2.08;;;16.50;99.90;;;;;;4960828;28;20567;-66
2023/04/29 09:43:13;;;;;;;5.82;2.25;;;16.30;99.90;;;;;;4976848;28;20393;-65
2023/04/29 09:45:44;;;;;;;3.97;2.10;;;16.40;99.90;;;;;;4976901;28;20812;-65
2023/04/29 09:48:11;;;;;;;6.30;3.45;;;16.30;99.90;;;;;;4940889;28;20050;-66
2023/04/29 09:50:41;;;;;;;7.72;4.43;;;16.40;99.90;;;;;;4957653;28;20054;-65
2023/04/29 09:53:09;;;;;;;5.57;1.98;;;16.40;99.90;;;;;;4941241;28;20043;-66
2023/04/29 09:55:53;;;;;;;8.68;2.58;;;16.50;99.90;;;;;;4956442;28;20130;-66
2023/04/29 09:58:32;;;;;;;6.07;1.90;;;16.60;99.90;;;;;;4970007;28;20046;-66
2023/04/29 10:01:01;;;;;;;8.23;2.15;;;16.50;99.90;;;;;;4976379;28;20045;-65
2023/04/29 10:03:34;;;;;;;5.72;2.15;;;16.70;99.90;;;;;;4959236;28;20509;-65
2023/04/29 10:06:02;;;;;;;7.72;2.47;;;17.00;99.90;;;;;;4973608;28;20050;-66
2023/04/29 10:08:32;;;;;;;5.20;2.60;;;17.20;99.90;;;;;;4975837;28;20073;-67
2023/04/29 10:11:02;;;;;;;7.00;2.53;;;16.70;99.90;;;;;;4976049;28;20061;-65
2023/04/29 10:13:29;;;;;;;7.93;2.95;;;16.80;99.90;;;;;;4976516;28;20520;-65
2023/04/29 10:16:21;;;;;;;9.73;2.60;;;17.00;99.90;;;;;;4974105;28;20327;-66
2023/04/29 10:18:52;;;;;;;11.27;3.05;;;17.10;99.90;;;;;;4952395;28;20228;-66
2023/04/29 10:21:23;;;;;;;10.27;2.67;;;17.30;99.90;;;;;;4959379;28;20201;-65
2023/04/29 10:23:49;;;;;;;5.20;2.85;;;17.50;99.90;;;;;;4961127;28;20043;-66
2023/04/29 10:26:17;;;;;;;6.65;2.85;;;17.40;99.90;;;;;;4964252;28;20222;-66
2023/04/29 10:28:44;;;;;;;7.50;2.78;;;17.60;99.90;;;;;;4983590;28;20472;-66
2023/04/29 10:31:13;;;;;;;6.28;2.97;;;17.50;99.90;;;;;;4979232;28;20057;-66
2023/04/29 10:33:42;;;;;;;3.95;2.20;;;17.40;99.90;;;;;;4976785;28;20279;-67
2023/04/29 10:36:08;;;;;;;5.38;1.77;;;17.30;99.90;;;;;;4975469;28;20411;-66
2023/04/29 10:38:41;;;;;;;7.55;2.40;;;17.40;99.90;;;;;;4961030;28;20470;-67
2023/04/29 10:41:24;;;;;;;5.50;1.98;;;17.50;99.90;;;;;;4960899;28;20462;-67
2023/04/29 10:43:51;;;;;;;5.63;1.50;;;17.50;99.90;;;;;;4941995;28;20049;-66
2023/04/29 10:46:20;;;;;;;4.47;1.67;;;17.60;99.90;;;;;;4937383;28;20058;-67
2023/04/29 10:48:47;;;;;;;6.30;1.60;;;17.70;99.90;;;;;;4993759;28;20042;-66
2023/04/29 10:51:26;;;;;;;4.65;1.35;;;17.70;99.90;;;;;;4980925;28;20042;-66
2023/04/29 10:54:01;;;;;;;4.32;1.00;;;17.90;99.90;;;;;;4963237;28;20579;-69
2023/04/29 10:56:48;;;;;;;5.95;1.67;;;18.00;99.90;;;;;;4954976;28;20034;-67
2023/04/29 10:59:18;;;;;;;4.68;0.85;;;17.50;99.90;;;;;;4957452;28;20515;-67
2023/04/29 11:01:47;;;;;;;5.18;1.42;;;17.60;99.90;;;;;;4961653;28;20074;-68
2023/04/29 11:04:13;;;;;;;4.57;0.90;;;17.70;99.90;;;;;;4961440;28;20588;-67
2023/04/29 11:06:41;;;;;;;1.55;0.47;;;17.80;99.90;;;;;;4959699;28;20386;-67
2023/04/29 11:09:26;;;;;;;2.35;0.40;;;17.90;90.20;;;;;;4956348;28;20332;-67
2023/04/29 11:12:02;;;;;;;3.47;0.50;;;17.70;28.10;;;;;;4946113;28;20046;-67
2023/04/29 11:14:42;;;;;;;3.60;0.40;;;17.70;20.30;;;;;;4958085;28;20397;-68
2023/04/29 11:17:15;;;;;;;2.83;0.30;;;17.90;1.00;;;;;;4943469;28;20049;-66
2023/04/29 11:19:49;;;;;;;2.10;0.40;;;18.00;6.90;;;;;;4960848;28;20077;-67
2023/04/29 11:22:18;;;;;;;2.53;0.50;;;17.90;19.60;;;;;;4939456;28;20038;-68
2023/04/29 11:25:00;;;;;;;3.60;0.80;;;17.20;17.00;;;;;;4974003;28;20141;-67
2023/04/29 11:27:37;;;;;;;6.13;0.65;;;17.70;59.40;;;;;;4940029;28;20115;-67
2023/04/29 11:30:05;;;;;;;8.10;4.65;;;17.40;32.30;;;;;;4962929;28;20466;-66
2023/04/29 11:32:32;;;;;;;2.40;0.55;;;17.50;53.90;;;;;;4974246;28;20137;-67
2023/04/29 11:35:18;;;;;;;2.15;0.50;;;17.80;70.40;;;;;;4976517;28;20050;-67
2023/04/29 11:37:46;;;;;;;3.10;0.45;;;18.10;42.10;;;;;;4951324;28;20046;-67
2023/04/29 11:40:13;;;;;;;1.90;0.40;;;18.10;52.10;;;;;;4941408;28;20133;-67
2023/04/29 11:42:47;;;;;;;2.03;0.40;;;18.10;66.90;;;;;;4957761;28;20347;-67
2023/04/29 11:45:14;;;;;;;4.18;0.43;;;18.20;33.20;;;;;;4957657;28;20050;-67
2023/04/29 11:47:49;;;;;;;2.35;0.47;;;18.50;57.70;;;;;;4962841;28;20049;-67
2023/04/29 11:50:18;;;;;;;3.95;0.57;;;18.00;26.90;;;;;;4975930;28;20107;-67
2023/04/29 11:52:46;;;;;;;2.85;0.50;;;17.90;53.60;;;;;;4959920;28;20067;-67
2023/04/29 11:55:13;;;;;;;3.80;0.50;;;17.70;30.70;;;;;;4971929;28;20039;-67
2023/04/29 11:57:39;;;;;;;2.78;0.55;;;18.10;28.40;;;;;;4962678;28;20035;-67
2023/04/29 12:00:11;;;;;;;2.42;0.70;;;18.40;25.80;;;;;;4971695;28;20124;-67
2023/04/29 12:02:37;;;;;;;5.67;1.20;;;18.10;1.00;;;;;;4956640;28;20497;-67
2023/04/29 12:05:07;;;;;;;4.30;0.90;;;17.80;22.40;;;;;;4958482;28;20033;-67
2023/04/29 12:07:34;;;;;;;3.42;0.90;;;18.50;48.20;;;;;;4941030;28;20065;-67
2023/04/29 12:10:00;;;;;;;5.50;0.82;;;17.80;1.00;;;;;;4960507;28;20050;-68
2023/04/29 12:12:33;;;;;;;3.22;0.80;;;17.80;1.00;;;;;;4941899;28;20065;-66
2023/04/29 12:14:59;;;;;;;2.55;0.57;;;16.80;1.00;;;;;;4957508;28;20377;-67
2023/04/29 12:17:25;;;;;;;3.55;0.60;;;17.30;23.90;;;;;;4956045;28;20347;-67
2023/04/29 12:19:52;;;;;;;2.08;0.63;;;17.60;16.90;;;;;;4940199;28;20046;-67
2023/04/29 12:22:19;;;;;;;3.38;0.70;;;17.70;8.90;;;;;;4957904;28;20080;-67
2023/04/29 12:24:44;;;;;;;2.38;0.63;;;17.50;1.20;;;;;;4943622;28;20044;-67
2023/04/29 12:27:10;;;;;;;3.55;0.60;;;17.90;15.00;;;;;;4945711;28;20054;-68
2023/04/29 12:29:39;;;;;;;3.75;0.63;;;18.00;11.80;;;;;;4960305;28;20459;-66
2023/04/29 12:32:05;;;;;;;3.58;0.57;;;18.30;4.00;;;;;;4957110;28;20105;-66
2023/04/29 12:34:32;;;;;;;2.08;0.60;;;18.10;1.00;;;;;;4945469;28;20247;-67
2023/04/29 12:36:59;;;;;;;2.28;0.47;;;18.00;1.00;;;;;;4963955;28;20261;-68
2023/04/29 12:39:25;;;;;;;3.40;0.60;;;17.20;1.00;;;;;;4945763;28;20196;-66
2023/04/29 12:41:56;;;;;;;1.80;0.50;;;17.10;1.00;;;;;;4921731;28;20133;-67
2023/04/29 12:44:23;;;;;;;2.67;0.63;;;17.50;1.00;;;;;;4958741;28;20279;-66
2023/04/29 12:46:48;;;;;;;2.92;0.52;;;17.80;1.00;;;;;;4958506;28;20073;-66